createdAt,value
2022-08-30T00:02:20.958Z,101227.88
2022-08-30T00:04:48.474Z,101227.22
2022-08-30T00:07:15.777Z,101230.13
2022-08-30T00:09:42.778Z,101225.88
2022-08-30T00:12:09.958Z,101220.56
2022-08-30T00:14:37.790Z,101219.06
2022-08-30T00:17:05.100Z,101226.59
2022-08-30T00:19:32.024Z,101222.16
2022-08-30T00:21:59.084Z,101212.41
2022-08-30T00:24:26.278Z,101224.56
2022-08-30T00:26:53.462Z,101222.00
2022-08-30T00:29:20.659Z,101223.38
2022-08-30T00:31:47.735Z,101220.84
2022-08-30T00:34:16.619Z,101229.38
2022-08-30T00:36:45.162Z,101230.56
2022-08-30T00:39:12.342Z,101230.06
2022-08-30T00:41:39.432Z,101223.91
2022-08-30T00:44:06.585Z,101223.41
2022-08-30T00:46:33.643Z,101220.53
2022-08-30T00:49:04.185Z,101213.53
2022-08-30T00:51:31.798Z,101221.72
2022-08-30T00:53:59.540Z,101220.22
2022-08-30T00:56:29.075Z,101218.50
2022-08-30T00:58:59.833Z,101221.44
2022-08-30T01:01:28.511Z,101215.78
2022-08-30T01:04:00.390Z,101217.84
2022-08-30T01:06:32.528Z,101216.13
2022-08-30T01:09:02.886Z,101222.81
2022-08-30T01:11:34.712Z,101219.59
2022-08-30T01:14:03.138Z,101215.81
2022-08-30T01:16:32.651Z,101225.56
2022-08-30T01:19:00.655Z,101221.97
2022-08-30T01:21:46.919Z,101223.81
2022-08-30T01:24:14.590Z,101217.00
2022-08-30T01:26:41.964Z,101213.44
2022-08-30T01:29:15.290Z,101210.19
2022-08-30T01:31:42.292Z,101199.63
2022-08-30T01:34:10.021Z,101205.97
2022-08-30T01:36:44.626Z,101206.97
2022-08-30T01:39:18.119Z,101207.31
2022-08-30T01:41:45.712Z,101216.56
2022-08-30T01:44:13.884Z,101217.41
2022-08-30T01:46:46.222Z,101219.28
2022-08-30T01:49:27.667Z,101218.94
2022-08-30T01:52:00.811Z,101213.31
2022-08-30T01:54:36.688Z,101208.19
2022-08-30T01:57:08.462Z,101206.97
2022-08-30T01:59:36.468Z,101212.78
2022-08-30T02:02:05.042Z,101218.59
2022-08-30T02:04:31.992Z,101227.66
2022-08-30T02:06:58.947Z,101223.22
2022-08-30T02:09:26.098Z,101229.72
2022-08-30T02:11:53.152Z,101229.53
2022-08-30T02:14:21.190Z,101223.91
2022-08-30T02:16:49.121Z,101224.59
2022-08-30T02:19:16.835Z,101219.28
2022-08-30T02:21:44.029Z,101220.16
2022-08-30T02:24:11.003Z,101226.47
2022-08-30T02:26:37.931Z,101225.44
2022-08-30T02:29:05.889Z,101230.75
2022-08-30T02:31:33.029Z,101234.34
2022-08-30T02:34:00.032Z,101243.72
2022-08-30T02:36:27.753Z,101242.69
2022-08-30T02:38:55.753Z,101244.56
2022-08-30T02:41:23.782Z,101242.03
2022-08-30T02:43:51.549Z,101247.66
2022-08-30T02:46:19.178Z,101245.09
2022-08-30T02:48:46.205Z,101242.22
2022-08-30T02:51:14.538Z,101230.94
2022-08-30T02:53:43.972Z,101223.91
2022-08-30T02:56:12.992Z,101225.44
2022-08-30T02:58:42.493Z,101230.41
2022-08-30T03:01:13.759Z,101237.41
2022-08-30T03:03:44.386Z,101232.13
2022-08-30T03:06:12.210Z,101235.88
2022-08-30T03:08:39.714Z,101237.25
2022-08-30T03:11:07.459Z,101248.84
2022-08-30T03:13:34.631Z,101241.69
2022-08-30T03:16:02.407Z,101235.19
2022-08-30T03:18:29.589Z,101232.97
2022-08-30T03:20:56.907Z,101230.56
2022-08-30T03:23:24.238Z,101225.63
2022-08-30T03:25:53.466Z,101242.88
2022-08-30T03:28:20.967Z,101244.06
2022-08-30T03:30:48.159Z,101242.38
2022-08-30T03:33:15.982Z,101244.22
2022-08-30T03:35:45.572Z,101233.28
2022-08-30T03:38:12.929Z,101236.72
2022-08-30T03:40:40.145Z,101236.53
2022-08-30T03:43:08.380Z,101236.53
2022-08-30T03:45:35.957Z,101235.69
2022-08-30T03:48:03.711Z,101242.00
2022-08-30T03:50:31.687Z,101247.13
2022-08-30T03:53:01.400Z,101244.56
2022-08-30T03:55:29.961Z,101250.88
2022-08-30T03:57:57.995Z,101247.31
2022-08-30T04:00:25.851Z,101254.97
2022-08-30T04:02:53.088Z,101261.13
2022-08-30T04:05:20.899Z,101266.97
2022-08-30T04:07:47.905Z,101269.50
2022-08-30T04:10:15.065Z,101277.38
2022-08-30T04:12:45.085Z,101279.75
2022-08-30T04:15:15.971Z,101285.75
2022-08-30T04:17:42.899Z,101284.19
2022-08-30T04:20:10.813Z,101281.47
2022-08-30T04:22:38.066Z,101279.59
2022-08-30T04:25:07.875Z,101279.72
2022-08-30T04:27:43.409Z,101284.19
2022-08-30T04:30:12.433Z,101284.00
2022-08-30T04:32:40.337Z,101288.28
2022-08-30T04:35:07.933Z,101291.03
2022-08-30T04:37:35.170Z,101296.31
2022-08-30T04:40:02.630Z,101310.84
2022-08-30T04:42:35.531Z,101308.09
2022-08-30T04:45:10.311Z,101310.84
2022-08-30T04:47:39.127Z,101311.50
2022-08-30T04:50:09.909Z,101307.78
2022-08-30T04:52:37.543Z,101314.25
2022-08-30T04:55:06.812Z,101314.09
2022-08-30T04:57:34.249Z,101313.06
2022-08-30T05:00:01.727Z,101308.44
2022-08-30T05:02:28.756Z,101311.00
2022-08-30T05:05:14.320Z,101309.81
2022-08-30T05:07:41.527Z,101318.50
2022-08-30T05:10:11.489Z,101316.81
2022-08-30T05:12:39.908Z,101316.97
2022-08-30T05:15:08.013Z,101315.97
2022-08-30T05:17:37.381Z,101320.03
2022-08-30T05:20:07.608Z,101327.38
2022-08-30T05:22:40.403Z,101334.72
2022-08-30T05:25:08.878Z,101341.03
2022-08-30T05:27:37.788Z,101336.44
2022-08-30T05:30:06.385Z,101343.63
2022-08-30T05:32:33.371Z,101340.19
2022-08-30T05:35:00.327Z,101340.19
2022-08-30T05:37:27.911Z,101342.75
2022-08-30T05:39:54.963Z,101347.19
2022-08-30T05:42:22.162Z,101357.09
2022-08-30T05:44:54.957Z,101353.34
2022-08-30T05:47:22.823Z,101350.78
2022-08-30T05:49:51.092Z,101357.09
2022-08-30T05:52:18.965Z,101357.09
2022-08-30T05:54:52.905Z,101356.94
2022-08-30T05:57:21.912Z,101357.59
2022-08-30T05:59:49.386Z,101356.44
2022-08-30T06:02:17.782Z,101356.25
2022-08-30T06:04:45.146Z,101357.13
2022-08-30T06:07:14.864Z,101354.06
2022-08-30T06:09:44.673Z,101356.59
2022-08-30T06:12:12.305Z,101350.09
2022-08-30T06:14:40.759Z,101355.44
2022-08-30T06:17:08.613Z,101351.66
2022-08-30T06:19:36.216Z,101349.78
2022-08-30T06:22:04.316Z,101355.09
2022-08-30T06:24:55.779Z,101354.91
2022-08-30T06:27:19.705Z,101354.75
2022-08-30T06:29:47.795Z,101355.25
2022-08-30T06:32:14.866Z,101354.06
2022-08-30T06:34:41.842Z,101351.84
2022-08-30T06:37:08.986Z,101355.44
2022-08-30T06:39:36.608Z,101351.84
2022-08-30T06:42:03.743Z,101354.25
2022-08-30T06:44:33.481Z,101352.72
2022-08-30T06:47:00.614Z,101353.38
2022-08-30T06:49:27.889Z,101348.78
2022-08-30T06:51:55.050Z,101353.22
2022-08-30T06:54:22.294Z,101359.53
2022-08-30T06:56:58.347Z,101362.13
2022-08-30T06:59:27.174Z,101356.31
2022-08-30T07:01:55.630Z,101361.44
2022-08-30T07:04:23.099Z,101371.03
2022-08-30T07:06:50.264Z,101363.69
2022-08-30T07:09:19.121Z,101372.53
2022-08-30T07:11:46.127Z,101360.59
2022-08-30T07:14:13.362Z,101364.00
2022-08-30T07:16:40.580Z,101359.41
2022-08-30T07:19:08.247Z,101354.94
2022-08-30T07:21:49.242Z,101360.06
2022-08-30T07:24:18.083Z,101355.13
2022-08-30T07:26:49.972Z,101347.41
2022-08-30T07:29:19.654Z,101351.03
2022-08-30T07:31:47.929Z,101347.97
2022-08-30T07:34:15.216Z,101334.59
2022-08-30T07:36:42.392Z,101339.38
2022-08-30T07:39:10.014Z,101338.03
2022-08-30T07:41:40.948Z,101334.44
2022-08-30T07:44:09.202Z,101332.56
2022-08-30T07:46:39.225Z,101342.81
2022-08-30T07:49:11.040Z,101345.00
2022-08-30T07:51:40.458Z,101344.31
2022-08-30T07:54:08.245Z,101340.03
2022-08-30T07:56:36.069Z,101342.25
2022-08-30T07:59:03.995Z,101347.19
2022-08-30T08:01:32.402Z,101351.84
2022-08-30T08:04:00.562Z,101352.13
2022-08-30T08:06:34.594Z,101351.78
2022-08-30T08:09:02.533Z,101355.22
2022-08-30T08:11:33.650Z,101350.09
2022-08-30T08:14:03.436Z,101358.44
2022-08-30T08:16:35.890Z,101354.97
2022-08-30T08:19:08.938Z,101355.66
2022-08-30T08:21:36.974Z,101351.53
2022-08-30T08:24:04.848Z,101353.06
2022-08-30T08:26:36.806Z,101355.28
2022-08-30T08:29:07.088Z,101343.59
2022-08-30T08:31:34.891Z,101347.16
2022-08-30T08:34:06.243Z,101348.16
2022-08-30T08:36:35.862Z,101343.69
2022-08-30T08:39:06.601Z,101339.56
2022-08-30T08:41:52.325Z,101334.38
2022-08-30T08:44:51.123Z,101326.47
2022-08-30T08:47:37.866Z,101319.47
2022-08-30T08:50:18.581Z,101326.28
2022-08-30T08:53:25.161Z,101324.69
2022-08-30T08:56:00.416Z,101333.13
2022-08-30T08:58:34.518Z,101338.88
2022-08-30T09:01:01.617Z,101347.59
2022-08-30T09:03:29.894Z,101346.59
2022-08-30T09:05:59.111Z,101339.50
2022-08-30T09:08:27.499Z,101354.19
2022-08-30T09:11:02.287Z,101344.94
2022-08-30T09:13:30.189Z,101350.22
2022-08-30T09:15:59.954Z,101355.91
2022-08-30T09:18:51.424Z,101357.59
2022-08-30T09:21:25.626Z,101358.28
2022-08-30T09:24:11.826Z,101366.66
2022-08-30T09:26:40.405Z,101364.72
2022-08-30T09:29:18.691Z,101378.91
2022-08-30T09:32:10.121Z,101368.22
2022-08-30T09:34:44.283Z,101366.44
2022-08-30T09:37:46.889Z,101366.53
2022-08-30T09:40:41.160Z,101357.41
2022-08-30T09:43:17.322Z,101364.53
2022-08-30T09:46:09.154Z,101354.88
2022-08-30T09:48:44.486Z,101353.91
2022-08-30T09:51:13.406Z,101357.63
2022-08-30T09:54:22.758Z,101358.63
2022-08-30T09:57:12.573Z,101363.16
2022-08-30T09:59:58.163Z,101363.16
2022-08-30T10:02:52.732Z,101361.06
2022-08-30T10:05:37.672Z,101352.53
2022-08-30T10:08:32.662Z,101351.97
2022-08-30T10:11:49.466Z,101343.63
2022-08-30T10:14:51.730Z,101342.13
2022-08-30T10:17:44.702Z,101334.06
2022-08-30T10:20:27.047Z,101331.31
2022-08-30T10:23:23.251Z,101325.16
2022-08-30T10:26:10.821Z,101318.63
2022-08-30T10:28:53.450Z,101322.22
2022-08-30T10:31:38.822Z,101320.13
2022-08-30T10:34:26.335Z,101314.56
2022-08-30T10:37:21.446Z,101324.72
2022-08-30T10:40:21.226Z,101315.41
2022-08-30T10:42:51.814Z,101317.09
2022-08-30T10:45:20.182Z,101318.16
2022-08-30T10:48:04.490Z,101327.47
2022-08-30T10:50:49.146Z,101326.97
2022-08-30T10:53:24.413Z,101322.13
2022-08-30T10:56:02.304Z,101321.56
2022-08-30T10:58:31.992Z,101322.88
2022-08-30T11:01:17.344Z,101328.84
2022-08-30T11:03:54.914Z,101313.03
2022-08-30T11:06:34.002Z,101308.16
2022-08-30T11:09:12.067Z,101316.63
2022-08-30T11:12:34.484Z,101313.66
2022-08-30T11:15:26.806Z,101306.09
2022-08-30T11:18:08.658Z,101297.47
2022-08-30T11:20:56.938Z,101291.56
2022-08-30T11:23:36.411Z,101291.81
2022-08-30T11:26:20.278Z,101283.41
2022-08-30T11:28:48.458Z,101278.34
2022-08-30T11:31:18.921Z,101275.00
2022-08-30T11:33:57.317Z,101272.84
2022-08-30T11:36:37.933Z,101281.78
2022-08-30T11:39:49.053Z,101275.31
2022-08-30T11:42:34.880Z,101281.34
2022-08-30T11:45:25.279Z,101277.34
2022-08-30T11:47:59.517Z,101268.69
2022-08-30T11:50:27.608Z,101270.34
2022-08-30T11:53:07.256Z,101267.41
2022-08-30T11:55:49.658Z,101270.81
2022-08-30T11:59:00.834Z,101265.50
2022-08-30T12:01:51.083Z,101260.47
2022-08-30T12:04:20.126Z,101248.28
2022-08-30T12:06:52.339Z,101247.06
2022-08-30T12:09:26.852Z,101246.50
2022-08-30T12:12:05.697Z,101232.91
2022-08-30T12:14:54.783Z,101231.88
2022-08-30T12:17:45.729Z,101231.22
2022-08-30T12:20:28.424Z,101233.66
2022-08-30T12:22:56.802Z,101239.78
2022-08-30T12:25:33.008Z,101237.63
2022-08-30T12:28:26.073Z,101238.25
2022-08-30T12:30:53.838Z,101242.25
2022-08-30T12:33:41.567Z,101247.34
2022-08-30T12:36:41.285Z,101233.13
2022-08-30T12:39:16.823Z,101240.34
2022-08-30T12:41:45.177Z,101235.03
2022-08-30T12:44:23.174Z,101232.91
2022-08-30T12:47:00.263Z,101228.31
2022-08-30T12:49:31.672Z,101241.78
2022-08-30T12:52:21.256Z,101238.38
2022-08-30T12:54:48.829Z,101238.59
2022-08-30T12:57:36.574Z,101222.28
2022-08-30T13:00:08.542Z,101237.50
2022-08-30T13:02:52.154Z,101229.00
2022-08-30T13:05:32.179Z,101228.06
2022-08-30T13:08:37.580Z,101233.97
2022-08-30T13:11:29.586Z,101231.41
2022-08-30T13:14:35.031Z,101231.78
2022-08-30T13:17:23.529Z,101226.69
2022-08-30T13:20:06.694Z,101220.53
2022-08-30T13:22:39.535Z,101215.91
2022-08-30T13:25:09.955Z,101208.50
2022-08-30T13:27:39.386Z,101199.03
2022-08-30T13:30:16.215Z,101193.31
2022-08-30T13:32:43.888Z,101184.22
2022-08-30T13:35:11.797Z,101168.63
2022-08-30T13:37:47.379Z,101166.59
2022-08-30T13:40:22.577Z,101162.25
2022-08-30T13:42:50.315Z,101156.53
2022-08-30T13:48:07.171Z,101154.03
2022-08-30T13:50:34.162Z,101159.34
2022-08-30T13:53:01.174Z,101159.13
2022-08-30T13:55:28.586Z,101147.91
2022-08-30T13:57:56.685Z,101144.94
2022-08-30T14:00:26.427Z,101140.09
2022-08-30T14:03:00.004Z,101140.09
2022-08-30T14:06:09.940Z,101141.38
2022-08-30T14:08:45.276Z,101138.63
2022-08-30T14:11:18.718Z,101126.59
2022-08-30T14:16:37.248Z,101116.00
2022-08-30T14:19:05.704Z,101115.59
2022-08-30T14:21:34.735Z,101116.44
2022-08-30T14:24:02.030Z,101105.03
2022-08-30T14:26:48.568Z,101109.69
2022-08-30T14:29:23.541Z,101107.16
2022-08-30T14:31:53.006Z,101099.16
2022-08-30T14:34:21.546Z,101099.19
2022-08-30T14:36:48.778Z,101091.78
2022-08-30T14:39:19.626Z,101107.03
2022-08-30T14:41:53.118Z,101104.91
2022-08-30T14:44:22.102Z,101108.94
2022-08-30T14:46:51.047Z,101110.63
2022-08-30T14:49:19.471Z,101106.38
2022-08-30T14:51:48.475Z,101107.88
2022-08-30T14:54:19.306Z,101098.53
2022-08-30T14:56:46.848Z,101098.75
2022-08-30T14:59:14.254Z,101091.75
2022-08-30T15:01:42.163Z,101082.44
2022-08-30T15:04:10.988Z,101084.56
2022-08-30T15:06:40.452Z,101072.25
2022-08-30T15:09:12.547Z,101068.63
2022-08-30T15:11:43.647Z,101066.09
2022-08-30T15:14:15.813Z,101072.00
2022-08-30T15:16:43.438Z,101077.91
2022-08-30T15:19:12.681Z,101073.69
2022-08-30T15:21:48.414Z,101061.56
2022-08-30T15:24:29.845Z,101060.72
2022-08-30T15:26:59.545Z,101058.78
2022-08-30T15:29:28.353Z,101064.69
2022-08-30T15:32:01.129Z,101055.56
2022-08-30T15:34:29.735Z,101041.13
2022-08-30T15:36:57.733Z,101048.75
2022-08-30T15:39:25.010Z,101044.72
2022-08-30T15:41:54.700Z,101048.50
2022-08-30T15:44:24.748Z,101038.75
2022-08-30T15:46:52.106Z,101037.91
2022-08-30T15:49:24.827Z,101038.94
2022-08-30T15:51:54.383Z,101036.19
2022-08-30T15:54:27.291Z,101041.69
2022-08-30T15:56:59.446Z,101033.25
2022-08-30T15:59:29.798Z,101033.25
2022-08-30T16:01:59.821Z,101025.00
2022-08-30T16:04:27.252Z,101032.00
2022-08-30T16:06:54.454Z,101018.06
2022-08-30T16:09:22.912Z,101015.94
2022-08-30T16:11:50.573Z,101024.00
2022-08-30T16:14:18.626Z,101019.34
2022-08-30T16:16:46.619Z,101027.38
2022-08-30T16:19:14.135Z,101025.50
2022-08-30T16:21:43.329Z,101016.19
2022-08-30T16:24:13.905Z,101017.25
2022-08-30T16:26:43.774Z,101028.25
2022-08-30T16:29:13.389Z,101036.50
2022-08-30T16:31:44.391Z,101041.34
2022-08-30T16:34:15.375Z,101036.91
2022-08-30T16:36:42.767Z,101045.34
2022-08-30T16:39:11.157Z,101046.41
2022-08-30T16:41:43.499Z,101049.34
2022-08-30T16:44:11.998Z,101049.75
2022-08-30T16:46:41.213Z,101046.34
2022-08-30T16:49:10.490Z,101052.25
2022-08-30T16:51:39.090Z,101042.50
2022-08-30T16:54:08.177Z,101038.06
2022-08-30T16:56:37.914Z,101050.31
2022-08-30T16:59:11.357Z,101044.16
2022-08-30T17:01:42.512Z,101041.63
2022-08-30T17:04:12.924Z,101049.84
2022-08-30T17:06:42.961Z,101040.78
2022-08-30T17:09:11.130Z,101041.81
2022-08-30T17:11:40.213Z,101035.47
2022-08-30T17:14:10.775Z,101031.88
2022-08-30T17:16:42.666Z,101042.84
2022-08-30T17:19:13.642Z,101042.19
2022-08-30T17:21:41.139Z,101040.72
2022-08-30T17:24:09.183Z,101036.25
2022-08-30T17:26:39.790Z,101045.56
2022-08-30T17:29:07.793Z,101036.66
2022-08-30T17:31:35.828Z,101037.94
2022-08-30T17:34:05.733Z,101037.28
2022-08-30T17:36:35.642Z,101038.53
2022-08-30T17:39:10.689Z,101048.22
2022-08-30T17:41:45.131Z,101042.47
2022-08-30T17:44:17.458Z,101031.03
2022-08-30T17:46:48.416Z,101039.91
2022-08-30T17:49:16.019Z,101030.38
2022-08-30T17:51:47.732Z,101038.16
2022-08-30T17:54:16.136Z,101049.69
2022-08-30T17:56:43.703Z,101039.31
2022-08-30T17:59:15.551Z,101036.97
2022-08-30T18:01:45.456Z,101037.38
2022-08-30T18:04:15.325Z,101035.84
2022-08-30T18:06:55.284Z,101038.16
2022-08-30T18:09:22.886Z,101038.56
2022-08-30T18:11:56.342Z,101030.03
2022-08-30T18:14:24.500Z,101035.28
2022-08-30T18:16:53.887Z,101029.53
2022-08-30T18:19:27.894Z,101029.94
2022-08-30T18:21:56.437Z,101023.13
2022-08-30T18:24:25.103Z,101018.88
2022-08-30T18:26:54.890Z,101026.66
2022-08-30T18:29:31.090Z,101029.81
2022-08-30T18:32:04.357Z,101023.84
2022-08-30T18:34:32.014Z,101027.00
2022-08-30T18:37:01.005Z,101025.66
2022-08-30T18:39:28.867Z,101033.44
2022-08-30T18:42:05.049Z,101034.22
2022-08-30T18:44:33.790Z,101030.56
2022-08-30T18:47:05.627Z,101035.75
2022-08-30T18:49:36.229Z,101039.09
2022-08-30T18:52:06.667Z,101038.63
2022-08-30T18:54:42.020Z,101048.25
2022-08-30T18:57:10.067Z,101054.13
2022-08-30T18:59:38.833Z,101057.09
2022-08-30T19:02:10.432Z,101053.66
2022-08-30T19:04:38.387Z,101049.25
2022-08-30T19:07:09.953Z,101052.19
2022-08-30T19:09:37.802Z,101046.88
2022-08-30T19:12:09.456Z,101044.97
2022-08-30T19:14:39.628Z,101042.63
2022-08-30T19:17:07.721Z,101034.59
2022-08-30T19:19:48.281Z,101038.19
2022-08-30T19:22:18.929Z,101044.91
2022-08-30T19:24:47.234Z,101057.75
2022-08-30T19:27:14.540Z,101055.22
2022-08-30T19:29:42.886Z,101069.50
2022-08-30T19:32:12.560Z,101070.22
2022-08-30T19:34:40.169Z,101066.00
2022-08-30T19:37:07.143Z,101060.69
2022-08-30T19:39:36.929Z,101052.00
2022-08-30T19:42:04.901Z,101066.06
2022-08-30T19:44:34.145Z,101066.66
2022-08-30T19:47:04.985Z,101073.72
2022-08-30T19:49:34.159Z,101071.38
2022-08-30T19:52:02.038Z,101074.66
2022-08-30T19:54:29.394Z,101081.56
2022-08-30T19:56:56.647Z,101084.66
2022-08-30T19:59:24.036Z,101092.25
2022-08-30T20:01:51.214Z,101089.88
2022-08-30T20:04:21.616Z,101095.06
2022-08-30T20:06:49.894Z,101116.84
2022-08-30T20:09:17.440Z,101135.22
2022-08-30T20:11:44.683Z,101138.09
2022-08-30T20:14:14.228Z,101148.25
2022-08-30T20:16:42.476Z,101144.84
2022-08-30T20:19:14.902Z,101138.19
2022-08-30T20:21:41.944Z,101151.72
2022-08-30T20:24:10.134Z,101151.91
2022-08-30T20:26:40.036Z,101154.63
2022-08-30T20:29:09.015Z,101158.94
2022-08-30T20:31:36.483Z,101151.41
2022-08-30T20:34:04.663Z,101159.44
2022-08-30T20:36:33.823Z,101150.59
2022-08-30T20:39:02.391Z,101149.56
2022-08-30T20:41:31.155Z,101153.31
2022-08-30T20:43:59.846Z,101149.06
2022-08-30T20:46:30.660Z,101148.06
2022-08-30T20:49:01.680Z,101143.59
2022-08-30T20:51:28.950Z,101146.88
2022-08-30T20:53:57.577Z,101142.25
2022-08-30T20:56:27.694Z,101139.19
2022-08-30T20:58:55.482Z,101136.44
2022-08-30T21:01:23.574Z,101139.03
2022-08-30T21:03:50.626Z,101139.19
2022-08-30T21:06:17.727Z,101141.91
2022-08-30T21:08:45.400Z,101142.28
2022-08-30T21:11:12.708Z,101138.69
2022-08-30T21:13:40.221Z,101137.00
2022-08-30T21:16:08.198Z,101134.63
2022-08-30T21:18:40.182Z,101130.34
2022-08-30T21:21:25.571Z,101138.75
2022-08-30T21:23:57.618Z,101143.88
2022-08-30T21:26:25.290Z,101137.56
2022-08-30T21:28:55.061Z,101133.97
2022-08-30T21:31:43.310Z,101125.09
2022-08-30T21:34:17.173Z,101115.34
2022-08-30T21:36:45.679Z,101122.91
2022-08-30T21:39:26.512Z,101117.09
2022-08-30T21:41:57.051Z,101123.59
2022-08-30T21:44:27.549Z,101127.38
2022-08-30T21:46:56.249Z,101122.06
2022-08-30T21:49:25.120Z,101111.81
2022-08-30T21:56:06.533Z,101109.59
2022-08-30T21:59:00.490Z,101109.44
2022-08-30T22:05:33.617Z,101099.91
2022-08-30T22:09:13.706Z,101096.97
2022-08-30T22:11:44.566Z,101100.75
2022-08-30T22:14:14.968Z,101110.31
2022-08-30T22:16:48.059Z,101116.47
2022-08-30T22:19:23.100Z,101111.50
2022-08-30T22:22:00.836Z,101120.75
2022-08-30T22:24:35.249Z,101136.09
2022-08-30T22:27:09.878Z,101121.59
2022-08-30T22:30:00.175Z,101127.06
2022-08-30T22:32:32.040Z,101127.25
2022-08-30T22:35:01.944Z,101133.72
2022-08-30T22:37:31.818Z,101132.88
2022-08-30T22:39:59.214Z,101125.53
2022-08-30T22:42:26.425Z,101131.84
2022-08-30T22:44:53.640Z,101125.38
2022-08-30T22:47:20.727Z,101122.78
2022-08-30T22:49:50.891Z,101120.06
2022-08-30T22:52:18.345Z,101121.63
2022-08-30T22:54:51.711Z,101112.25
2022-08-30T22:57:20.091Z,101115.31
2022-08-30T22:59:47.374Z,101113.97
2022-08-30T23:02:14.881Z,101113.97
2022-08-30T23:04:42.088Z,101121.84
2022-08-30T23:07:09.577Z,101109.06
2022-08-30T23:09:36.958Z,101111.44
2022-08-30T23:12:06.367Z,101108.88
2022-08-30T23:14:33.607Z,101111.63
2022-08-30T23:17:00.927Z,101098.13
2022-08-30T23:19:28.277Z,101097.97
2022-08-30T23:21:55.378Z,101095.91
2022-08-30T23:24:41.208Z,101111.28
2022-08-30T23:27:31.905Z,101101.38
2022-08-30T23:30:17.591Z,101102.88
2022-08-30T23:33:03.381Z,101087.53
2022-08-30T23:35:48.797Z,101083.09
2022-08-30T23:38:34.242Z,101085.16
2022-08-30T23:41:20.301Z,101095.41
2022-08-30T23:44:05.769Z,101090.94
2022-08-30T23:46:51.838Z,101098.97
2022-08-30T23:49:37.461Z,101089.41
2022-08-30T23:52:23.939Z,101082.41
2022-08-30T23:55:10.051Z,101078.84
2022-08-30T23:57:55.430Z,101080.72
